createdAt,value
2019-02-10T00:06:32.787Z,4.40
2019-02-10T00:09:01.184Z,4.07
2019-02-10T00:11:29.615Z,4.10
2019-02-10T00:13:58.004Z,4.00
2019-02-10T00:16:28.228Z,4.03
2019-02-10T00:18:56.649Z,3.93
2019-02-10T00:21:25.043Z,4.00
2019-02-10T00:23:53.447Z,3.83
2019-02-10T00:26:22.094Z,4.17
2019-02-10T00:28:50.489Z,4.13
2019-02-10T00:31:18.882Z,3.97
2019-02-10T00:33:47.304Z,3.73
2019-02-10T00:36:15.696Z,4.30
2019-02-10T00:38:44.088Z,3.77
2019-02-10T00:41:12.515Z,3.87
2019-02-10T00:43:40.915Z,3.90
2019-02-10T00:46:09.342Z,3.70
2019-02-10T00:48:37.765Z,3.70
2019-02-10T00:51:06.147Z,4.13
2019-02-10T00:53:34.584Z,3.63
2019-02-10T00:56:03.104Z,3.60
2019-02-10T00:58:31.525Z,4.00
2019-02-10T01:00:59.908Z,3.80
2019-02-10T01:03:28.338Z,3.73
2019-02-10T01:05:56.734Z,3.77
2019-02-10T01:08:25.262Z,3.50
2019-02-10T01:10:53.694Z,3.90
2019-02-10T01:13:22.093Z,4.00
2019-02-10T01:15:50.555Z,3.83
2019-02-10T01:18:19.034Z,3.97
2019-02-10T01:20:47.424Z,3.90
2019-02-10T01:23:15.817Z,4.00
2019-02-10T01:25:44.232Z,4.10
2019-02-10T01:28:12.628Z,4.23
2019-02-10T01:30:41.463Z,4.27
2019-02-10T01:33:10.054Z,4.23
2019-02-10T01:35:38.444Z,4.90
2019-02-10T01:38:06.838Z,5.00
2019-02-10T01:40:35.348Z,4.50
2019-02-10T01:43:03.739Z,5.10
2019-02-10T01:45:32.148Z,4.97
2019-02-10T01:48:00.575Z,4.70
2019-02-10T01:50:28.971Z,4.60
2019-02-10T01:52:57.366Z,4.60
2019-02-10T01:55:25.821Z,4.20
2019-02-10T01:57:54.218Z,4.40
2019-02-10T02:00:22.677Z,4.30
2019-02-10T02:02:51.210Z,4.20
2019-02-10T02:05:19.606Z,4.17
2019-02-10T02:07:48.004Z,4.70
2019-02-10T02:10:16.955Z,4.30
2019-02-10T02:12:45.346Z,4.17
2019-02-10T02:15:16.529Z,4.30
2019-02-10T02:17:44.941Z,3.90
2019-02-10T02:20:13.869Z,3.90
2019-02-10T02:22:42.324Z,4.00
2019-02-10T02:25:12.205Z,3.80
2019-02-10T02:27:40.844Z,3.70
2019-02-10T02:30:11.940Z,3.90
2019-02-10T02:32:40.455Z,3.60
2019-02-10T02:35:09.104Z,3.67
2019-02-10T02:37:37.564Z,3.83
2019-02-10T02:40:08.434Z,3.53
2019-02-10T02:42:36.828Z,3.80
2019-02-10T02:45:07.990Z,4.00
2019-02-10T02:47:36.400Z,3.60
2019-02-10T02:50:05.942Z,4.43
2019-02-10T02:52:34.329Z,4.23
2019-02-10T02:55:02.790Z,4.13
2019-02-10T02:57:31.179Z,4.70
2019-02-10T02:59:59.562Z,3.83
2019-02-10T03:02:28.365Z,3.77
2019-02-10T03:04:56.762Z,4.20
2019-02-10T03:07:25.161Z,4.23
2019-02-10T03:09:53.742Z,4.10
2019-02-10T03:12:22.145Z,4.00
2019-02-10T03:14:50.525Z,4.33
2019-02-10T03:17:19.244Z,4.20
2019-02-10T03:19:47.636Z,3.97
2019-02-10T03:22:16.092Z,4.23
2019-02-10T03:24:44.687Z,4.23
2019-02-10T03:27:13.079Z,4.63
2019-02-10T03:29:41.468Z,4.17
2019-02-10T03:32:09.898Z,4.27
2019-02-10T03:34:38.280Z,4.43
2019-02-10T03:37:06.674Z,4.27
2019-02-10T03:39:35.098Z,4.40
2019-02-10T03:42:03.560Z,3.90
2019-02-10T03:44:31.955Z,4.40
2019-02-10T03:47:00.518Z,3.90
2019-02-10T03:49:28.916Z,3.90
2019-02-10T03:51:57.314Z,3.60
2019-02-10T03:54:25.725Z,4.00
2019-02-10T03:56:54.140Z,4.13
2019-02-10T03:59:22.532Z,3.60
2019-02-10T04:01:50.965Z,3.77
2019-02-10T04:04:19.358Z,3.90
2019-02-10T04:06:47.750Z,3.70
2019-02-10T04:09:16.282Z,3.80
2019-02-10T04:11:44.676Z,3.60
2019-02-10T04:14:13.064Z,4.00
2019-02-10T04:16:41.679Z,3.57
2019-02-10T04:19:10.123Z,3.67
2019-02-10T04:21:38.514Z,3.53
2019-02-10T04:24:07.111Z,4.10
2019-02-10T04:26:35.522Z,4.30
2019-02-10T04:29:03.909Z,3.73
2019-02-10T04:31:32.456Z,4.23
2019-02-10T04:34:00.839Z,3.83
2019-02-10T04:36:29.230Z,3.70
2019-02-10T04:38:57.648Z,3.40
2019-02-10T04:41:26.054Z,3.47
2019-02-10T04:43:54.454Z,3.47
2019-02-10T04:46:23.022Z,3.37
2019-02-10T04:48:51.417Z,3.20
2019-02-10T04:51:19.809Z,3.20
2019-02-10T04:53:48.250Z,3.40
2019-02-10T04:56:17.184Z,3.37
2019-02-10T04:58:45.570Z,3.50
2019-02-10T05:01:14.099Z,3.30
2019-02-10T05:03:42.510Z,3.50
2019-02-10T05:06:10.880Z,3.50
2019-02-10T05:08:39.338Z,3.50
2019-02-10T05:11:07.766Z,3.50
2019-02-10T05:13:36.146Z,3.90
2019-02-10T05:16:04.632Z,3.50
2019-02-10T05:18:33.195Z,3.60
2019-02-10T05:21:01.588Z,3.50
2019-02-10T05:23:30.000Z,3.40
2019-02-10T05:25:58.400Z,4.00
2019-02-10T05:28:26.819Z,3.50
2019-02-10T05:30:55.271Z,3.50
2019-02-10T05:33:23.661Z,2.83
2019-02-10T05:35:52.059Z,3.60
2019-02-10T05:38:20.479Z,3.10
2019-02-10T05:40:48.882Z,3.30
2019-02-10T05:43:17.264Z,3.70
2019-02-10T05:45:45.718Z,3.60
2019-02-10T05:48:14.103Z,3.63
2019-02-10T05:50:42.495Z,3.63
2019-02-10T05:53:12.454Z,3.27
2019-02-10T05:55:40.850Z,3.87
2019-02-10T05:58:09.239Z,3.00
2019-02-10T06:00:38.076Z,3.63
2019-02-10T06:03:06.489Z,3.80
2019-02-10T06:05:34.867Z,3.70
2019-02-10T06:08:03.405Z,3.87
2019-02-10T06:10:31.816Z,3.80
2019-02-10T06:13:00.195Z,3.60
2019-02-10T06:15:28.648Z,3.50
2019-02-10T06:17:57.037Z,4.00
2019-02-10T06:20:25.446Z,3.57
2019-02-10T06:22:53.853Z,3.80
2019-02-10T06:25:22.258Z,4.00
2019-02-10T06:27:50.650Z,3.87
2019-02-10T06:30:19.169Z,4.17
2019-02-10T06:32:47.534Z,4.03
2019-02-10T06:35:15.930Z,4.43
2019-02-10T06:37:45.241Z,4.50
2019-02-10T06:40:13.651Z,4.30
2019-02-10T06:42:42.047Z,4.40
2019-02-10T06:45:11.234Z,3.80
2019-02-10T06:47:39.634Z,4.37
2019-02-10T06:50:08.696Z,4.17
2019-02-10T06:52:37.119Z,3.83
2019-02-10T06:55:07.842Z,3.80
2019-02-10T06:57:36.246Z,3.70
2019-02-10T07:00:14.211Z,3.60
2019-02-10T07:03:19.235Z,3.53
2019-02-10T07:05:47.686Z,3.20
2019-02-10T07:08:16.076Z,3.40
2019-02-10T07:10:44.481Z,3.30
2019-02-10T07:13:16.279Z,3.20
2019-02-10T07:16:20.948Z,3.83
2019-02-10T07:19:25.694Z,3.50
2019-02-10T07:21:54.094Z,3.70
2019-02-10T07:24:35.557Z,3.67
2019-02-10T07:27:06.996Z,3.47
2019-02-10T07:29:59.907Z,3.80
2019-02-10T07:32:30.833Z,3.80
2019-02-10T07:35:35.733Z,3.60
2019-02-10T07:38:12.755Z,3.87
2019-02-10T07:40:59.161Z,3.77
2019-02-10T07:43:39.972Z,3.93
2019-02-10T07:46:17.477Z,3.70
2019-02-10T07:49:13.107Z,3.70
2019-02-10T07:52:19.320Z,3.53
2019-02-10T07:55:19.174Z,3.30
2019-02-10T07:57:59.612Z,3.40
2019-02-10T08:00:37.612Z,3.67
2019-02-10T08:03:20.899Z,4.20
2019-02-10T08:05:59.818Z,4.30
2019-02-10T08:08:46.885Z,3.73
2019-02-10T08:11:37.953Z,3.87
2019-02-10T08:14:42.973Z,3.97
2019-02-10T08:17:30.836Z,4.10
2019-02-10T08:20:17.237Z,4.23
2019-02-10T08:22:51.697Z,4.03
2019-02-10T08:25:37.936Z,4.20
2019-02-10T08:28:32.011Z,3.90
2019-02-10T08:31:23.047Z,3.83
2019-02-10T08:34:00.383Z,4.20
2019-02-10T08:36:31.862Z,4.60
2019-02-10T08:39:14.990Z,3.97
2019-02-10T08:41:58.651Z,4.07
2019-02-10T08:44:32.907Z,3.63
2019-02-10T08:47:04.379Z,3.53
2019-02-10T08:49:44.039Z,3.57
2019-02-10T08:52:18.541Z,4.00
2019-02-10T08:54:46.943Z,3.40
2019-02-10T08:57:15.335Z,3.43
2019-02-10T08:59:43.890Z,3.60
2019-02-10T09:02:12.352Z,3.47
2019-02-10T09:04:40.743Z,3.90
2019-02-10T09:07:09.400Z,3.87
2019-02-10T09:09:37.791Z,3.90
2019-02-10T09:12:06.196Z,3.83
2019-02-10T09:14:34.614Z,4.00
2019-02-10T09:17:03.026Z,3.97
2019-02-10T09:19:31.415Z,4.63
2019-02-10T09:21:59.845Z,4.43
2019-02-10T09:24:28.237Z,4.00
2019-02-10T09:26:56.698Z,4.27
2019-02-10T09:29:25.243Z,4.00
2019-02-10T09:31:53.640Z,4.00
2019-02-10T09:34:22.035Z,4.10
2019-02-10T09:36:50.457Z,3.67
2019-02-10T09:39:18.847Z,4.10
2019-02-10T09:41:47.252Z,4.27
2019-02-10T09:44:15.827Z,4.00
2019-02-10T09:46:44.228Z,4.60
2019-02-10T09:49:12.631Z,4.20
2019-02-10T09:51:41.088Z,4.43
2019-02-10T09:54:09.545Z,4.47
2019-02-10T09:56:37.968Z,5.20
2019-02-10T09:59:06.505Z,4.20
2019-02-10T10:01:34.910Z,3.73
2019-02-10T10:04:03.308Z,3.40
2019-02-10T10:06:31.763Z,3.60
2019-02-10T10:09:00.165Z,3.70
2019-02-10T10:11:28.561Z,7.43
2019-02-10T10:13:57.390Z,5.57
2019-02-10T10:16:25.782Z,3.90
2019-02-10T10:18:54.171Z,4.83
2019-02-10T10:21:22.628Z,3.67
2019-02-10T10:23:51.004Z,3.30
2019-02-10T10:26:19.403Z,3.57
2019-02-10T10:28:47.819Z,3.10
2019-02-10T10:31:16.289Z,3.37
2019-02-10T10:33:44.730Z,3.60
2019-02-10T10:36:13.162Z,4.40
2019-02-10T10:38:41.625Z,4.20
2019-02-10T10:41:10.067Z,3.60
2019-02-10T10:43:38.703Z,3.20
2019-02-10T10:46:07.176Z,5.10
2019-02-10T10:48:35.567Z,3.80
2019-02-10T10:51:04.091Z,4.13
2019-02-10T10:53:32.490Z,3.80
2019-02-10T10:56:00.951Z,16.73
2019-02-10T10:58:29.629Z,4.10
2019-02-10T11:00:58.020Z,4.30
2019-02-10T11:03:26.423Z,4.23
2019-02-10T11:05:55.316Z,3.57
2019-02-10T11:08:23.758Z,3.57
2019-02-10T11:10:52.168Z,3.90
2019-02-10T11:13:20.726Z,3.97
2019-02-10T11:15:49.115Z,4.00
2019-02-10T11:18:17.584Z,4.20
2019-02-10T11:20:46.284Z,4.00
2019-02-10T11:23:14.678Z,4.03
2019-02-10T11:25:43.095Z,3.80
2019-02-10T11:28:11.922Z,4.10
2019-02-10T11:30:40.382Z,4.40
2019-02-10T11:33:08.819Z,4.13
2019-02-10T11:35:37.665Z,4.10
2019-02-10T11:38:06.063Z,4.17
2019-02-10T11:40:34.458Z,4.10
2019-02-10T11:43:03.005Z,3.87
2019-02-10T11:45:31.466Z,4.03
2019-02-10T11:47:59.863Z,4.10
2019-02-10T11:50:28.283Z,4.07
2019-02-10T11:52:56.667Z,3.83
2019-02-10T11:55:25.103Z,3.60
2019-02-10T11:57:53.889Z,3.43
2019-02-10T12:00:22.675Z,3.43
2019-02-10T12:02:51.064Z,3.27
2019-02-10T12:05:19.637Z,3.20
2019-02-10T12:07:48.039Z,3.60
2019-02-10T12:10:16.531Z,3.10
2019-02-10T12:12:45.381Z,3.10
2019-02-10T12:15:17.035Z,3.20
2019-02-10T12:17:45.429Z,3.30
2019-02-10T12:20:16.471Z,3.20
2019-02-10T12:22:50.319Z,2.80
2019-02-10T12:25:16.838Z,3.03
2019-02-10T12:27:46.744Z,2.80
2019-02-10T12:30:16.177Z,3.13
2019-02-10T12:32:44.572Z,3.20
2019-02-10T12:35:13.578Z,3.00
2019-02-10T12:37:41.974Z,3.30
2019-02-10T12:40:11.998Z,2.50
2019-02-10T12:42:42.100Z,2.70
2019-02-10T12:45:12.463Z,2.67
2019-02-10T12:47:40.893Z,2.47
2019-02-10T12:50:14.307Z,2.30
2019-02-10T12:52:42.719Z,2.67
2019-02-10T12:55:12.154Z,2.40
2019-02-10T12:57:40.576Z,2.50
2019-02-10T13:00:18.131Z,2.80
2019-02-10T13:02:46.875Z,2.60
2019-02-10T13:05:15.272Z,2.50
2019-02-10T13:07:43.696Z,2.60
2019-02-10T13:10:18.295Z,2.40
2019-02-10T13:12:46.717Z,2.83
2019-02-10T13:15:15.213Z,2.20
2019-02-10T13:17:43.878Z,2.30
2019-02-10T13:20:13.447Z,1.93
2019-02-10T13:22:41.858Z,1.87
2019-02-10T13:25:14.975Z,2.00
2019-02-10T13:27:43.542Z,1.97
2019-02-10T13:30:18.806Z,1.97
2019-02-10T13:32:47.444Z,1.90
2019-02-10T13:35:15.916Z,1.90
2019-02-10T13:37:44.828Z,1.67
2019-02-10T13:40:22.391Z,1.80
2019-02-10T13:42:51.084Z,1.60
2019-02-10T13:45:19.496Z,1.50
2019-02-10T13:47:47.981Z,1.70
2019-02-10T13:50:20.112Z,2.00
2019-02-10T13:52:48.576Z,2.07
2019-02-10T13:55:17.559Z,1.83
2019-02-10T13:57:46.175Z,1.70
2019-02-10T14:00:17.619Z,1.67
2019-02-10T14:02:46.016Z,1.43
2019-02-10T14:05:14.509Z,1.50
2019-02-10T14:07:42.902Z,1.30
2019-02-10T14:10:24.923Z,1.80
2019-02-10T14:12:47.281Z,1.60
2019-02-10T14:15:19.749Z,1.60
2019-02-10T14:17:48.123Z,1.60
2019-02-10T14:20:20.347Z,1.70
2019-02-10T14:22:48.744Z,1.60
2019-02-10T14:25:18.106Z,1.83
2019-02-10T14:27:46.697Z,1.70
2019-02-10T14:30:18.147Z,1.80
2019-02-10T14:32:46.545Z,1.57
2019-02-10T14:35:15.217Z,1.80
2019-02-10T14:37:43.690Z,1.80
2019-02-10T14:40:12.726Z,1.80
2019-02-10T14:42:41.223Z,1.47
2019-02-10T14:45:14.549Z,1.77
2019-02-10T14:47:43.063Z,1.53
2019-02-10T14:50:15.905Z,1.33
2019-02-10T14:52:44.297Z,1.50
2019-02-10T14:55:12.780Z,1.10
2019-02-10T14:57:41.205Z,1.67
2019-02-10T15:00:12.613Z,1.30
2019-02-10T15:02:43.383Z,1.37
2019-02-10T15:05:11.739Z,1.53
2019-02-10T15:07:41.650Z,1.27
2019-02-10T15:10:12.977Z,1.70
2019-02-10T15:12:41.430Z,1.17
2019-02-10T15:15:11.469Z,1.20
2019-02-10T15:17:39.874Z,1.30
2019-02-10T15:20:10.202Z,1.33
2019-02-10T15:22:38.607Z,1.20
2019-02-10T15:25:10.020Z,1.30
2019-02-10T15:27:38.448Z,1.30
2019-02-10T15:30:09.955Z,1.67
2019-02-10T15:32:38.355Z,1.40
2019-02-10T15:35:06.966Z,1.20
2019-02-10T15:37:35.364Z,1.17
2019-02-10T15:40:05.410Z,2.30
2019-02-10T15:42:33.829Z,1.57
2019-02-10T15:45:02.335Z,1.13
2019-02-10T15:47:30.732Z,1.87
2019-02-10T15:49:59.198Z,0.60
2019-02-10T15:52:27.615Z,1.07
2019-02-10T15:54:56.019Z,0.93
2019-02-10T15:57:24.457Z,0.80
2019-02-10T15:59:52.937Z,1.50
2019-02-10T16:02:21.421Z,0.90
2019-02-10T16:04:49.860Z,0.97
2019-02-10T16:07:18.257Z,0.97
2019-02-10T16:09:46.721Z,0.90
2019-02-10T16:12:15.654Z,0.70
2019-02-10T16:14:44.053Z,0.70
2019-02-10T16:17:12.457Z,1.07
2019-02-10T16:19:41.015Z,10.77
2019-02-10T16:22:09.419Z,0.90
2019-02-10T16:24:37.843Z,0.60
2019-02-10T16:27:06.274Z,0.87
2019-02-10T16:29:34.685Z,0.50
2019-02-10T16:32:03.087Z,0.97
2019-02-10T16:34:31.717Z,1.03
2019-02-10T16:37:00.124Z,0.70
2019-02-10T16:39:28.523Z,0.73
2019-02-10T16:41:56.946Z,1.00
2019-02-10T16:44:25.365Z,0.90
2019-02-10T16:46:53.779Z,0.63
2019-02-10T16:49:22.242Z,0.63
2019-02-10T16:51:50.637Z,0.47
2019-02-10T16:54:19.033Z,0.50
2019-02-10T16:56:47.594Z,0.50
2019-02-10T16:59:15.959Z,2.90
2019-02-10T17:01:44.369Z,2.70
2019-02-10T17:04:12.821Z,3.37
2019-02-10T17:06:41.223Z,6.13
2019-02-10T17:09:09.918Z,13.70
2019-02-10T17:11:38.325Z,3.50
2019-02-10T17:14:06.760Z,4.63
2019-02-10T17:16:35.182Z,5.27
2019-02-10T17:19:03.595Z,3.87
2019-02-10T17:21:31.993Z,2.00
2019-02-10T17:24:00.479Z,2.47
2019-02-10T17:26:28.921Z,2.03
2019-02-10T17:28:57.326Z,2.07
2019-02-10T17:31:25.725Z,2.00
2019-02-10T17:33:54.170Z,8.27
2019-02-10T17:36:22.596Z,11.33
2019-02-10T17:38:50.992Z,4.83
2019-02-10T17:41:22.802Z,5.83
2019-02-10T17:43:50.797Z,8.17
2019-02-10T17:46:19.203Z,5.60
2019-02-10T17:48:47.755Z,8.63
2019-02-10T17:51:16.158Z,4.90
2019-02-10T17:53:44.640Z,5.10
2019-02-10T17:56:13.065Z,4.87
2019-02-10T17:58:41.467Z,6.00
2019-02-10T18:01:09.871Z,4.80
2019-02-10T18:03:38.641Z,4.50
2019-02-10T18:06:07.048Z,4.40
2019-02-10T18:08:35.451Z,5.63
2019-02-10T18:11:03.917Z,5.50
2019-02-10T18:13:32.326Z,6.23
2019-02-10T18:16:02.380Z,5.93
2019-02-10T18:18:32.455Z,4.20
2019-02-10T18:21:05.309Z,3.20
2019-02-10T18:23:35.400Z,17.63
2019-02-10T18:26:08.464Z,8.13
2019-02-10T18:28:50.191Z,4.07
2019-02-10T18:31:20.257Z,3.70
2019-02-10T18:33:50.302Z,3.83
2019-02-10T18:36:36.715Z,3.20
2019-02-10T18:39:07.997Z,2.90
2019-02-10T18:41:41.145Z,1.80
2019-02-10T18:44:23.406Z,1.77
2019-02-10T18:46:53.515Z,1.70
2019-02-10T18:49:26.035Z,1.60
2019-02-10T18:51:56.238Z,1.53
2019-02-10T18:54:26.709Z,1.40
2019-02-10T18:57:05.621Z,1.17
2019-02-10T18:59:47.621Z,0.87
2019-02-10T19:02:26.927Z,0.70
2019-02-10T19:05:06.273Z,0.80
2019-02-10T19:07:39.343Z,1.00
2019-02-10T19:10:22.045Z,1.10
2019-02-10T19:12:54.779Z,0.80
2019-02-10T19:15:27.530Z,0.60
2019-02-10T19:18:00.025Z,0.43
2019-02-10T19:20:33.445Z,0.47
2019-02-10T19:23:04.203Z,0.63
2019-02-10T19:25:40.440Z,2.33
2019-02-10T19:28:10.472Z,0.20
2019-02-10T19:30:57.147Z,0.40
2019-02-10T19:33:43.170Z,0.20
2019-02-10T19:36:31.715Z,0.20
2019-02-10T19:39:16.495Z,0.13
2019-02-10T19:41:46.625Z,0.20
2019-02-10T19:44:33.006Z,0.60
2019-02-10T19:47:18.321Z,0.30
2019-02-10T19:50:07.687Z,0.40
2019-02-10T19:52:43.896Z,0.20
2019-02-10T19:55:13.927Z,0.00
2019-02-10T19:57:44.017Z,0.10
2019-02-10T20:00:16.911Z,0.30
2019-02-10T20:02:52.727Z,0.27
2019-02-10T20:05:31.688Z,0.13
2019-02-10T20:08:17.616Z,0.20
2019-02-10T20:10:50.378Z,0.10
2019-02-10T20:13:38.432Z,0.20
2019-02-10T20:16:08.508Z,0.33
2019-02-10T20:18:41.299Z,0.10
2019-02-10T20:21:11.348Z,0.07
2019-02-10T20:23:53.677Z,0.30
2019-02-10T20:29:21.084Z,0.20
2019-02-10T20:31:56.964Z,0.20
2019-02-10T20:34:32.797Z,0.20
2019-02-10T20:37:05.622Z,0.03
2019-02-10T20:39:35.666Z,0.10
2019-02-10T20:42:20.788Z,0.30
2019-02-10T20:45:08.966Z,0.13
2019-02-10T20:47:39.231Z,0.10
2019-02-10T20:50:27.707Z,0.00
2019-02-10T20:53:13.925Z,0.00
2019-02-10T20:55:43.963Z,0.07
2019-02-10T20:58:14.013Z,0.10
2019-02-10T21:00:47.002Z,0.30
2019-02-10T21:03:23.251Z,0.10
2019-02-10T21:05:56.205Z,0.20
2019-02-10T21:08:28.661Z,0.20
2019-02-10T21:11:10.839Z,0.23
2019-02-10T21:13:40.901Z,0.10
2019-02-10T21:16:16.893Z,0.20
2019-02-10T21:18:46.925Z,1.03
2019-02-10T21:21:28.965Z,0.30
2019-02-10T21:24:04.795Z,1.17
2019-02-10T21:26:38.279Z,1.50
2019-02-10T21:29:17.411Z,0.33
2019-02-10T21:34:34.891Z,1.10
2019-02-10T21:37:04.995Z,0.50
2019-02-10T21:39:40.659Z,0.40
2019-02-10T21:42:13.706Z,0.20
2019-02-10T21:44:46.563Z,0.13
2019-02-10T21:47:26.086Z,0.27
2019-02-10T21:49:54.481Z,0.50
2019-02-10T21:52:22.888Z,0.50
2019-02-10T21:54:51.457Z,0.50
2019-02-10T21:57:19.878Z,0.43
2019-02-10T21:59:48.335Z,0.90
2019-02-10T22:02:16.763Z,0.40
2019-02-10T22:04:45.161Z,0.30
2019-02-10T22:07:13.602Z,0.43
2019-02-10T22:09:42.103Z,2.50
2019-02-10T22:12:10.502Z,0.50
2019-02-10T22:14:38.928Z,0.57
2019-02-10T22:17:07.424Z,0.60
2019-02-10T22:19:35.822Z,0.33
2019-02-10T22:22:04.288Z,0.50
2019-02-10T22:24:32.733Z,1.30
2019-02-10T22:27:01.199Z,1.60
2019-02-10T22:29:29.594Z,1.53
2019-02-10T22:31:59.361Z,0.93
2019-02-10T22:34:27.851Z,0.70
2019-02-10T22:36:56.276Z,0.60
2019-02-10T22:39:24.826Z,0.80
2019-02-10T22:41:53.219Z,0.50
2019-02-10T22:44:21.609Z,0.80
2019-02-10T22:46:50.171Z,0.83
2019-02-10T22:49:18.583Z,1.00
2019-02-10T22:51:46.978Z,2.10
2019-02-10T22:54:15.503Z,0.73
2019-02-10T22:56:43.898Z,0.50
2019-02-10T22:59:12.299Z,0.20
2019-02-10T23:01:40.893Z,0.10
2019-02-10T23:04:09.360Z,0.20
2019-02-10T23:06:37.746Z,0.10
2019-02-10T23:09:09.574Z,0.17
2019-02-10T23:11:37.967Z,0.10
2019-02-10T23:14:06.363Z,0.10
2019-02-10T23:16:34.909Z,0.10
2019-02-10T23:19:03.299Z,0.20
2019-02-10T23:21:31.694Z,0.20
2019-02-10T23:24:00.246Z,0.10
2019-02-10T23:26:28.725Z,0.10
2019-02-10T23:28:57.192Z,0.20
2019-02-10T23:31:25.791Z,0.00
2019-02-10T23:33:54.187Z,0.10
2019-02-10T23:36:22.579Z,0.10
2019-02-10T23:38:51.342Z,0.43
2019-02-10T23:41:19.734Z,0.10
2019-02-10T23:43:48.130Z,0.10
2019-02-10T23:46:16.677Z,0.10
2019-02-10T23:48:45.063Z,0.10
2019-02-10T23:51:13.468Z,0.00
2019-02-10T23:53:42.170Z,0.20
2019-02-10T23:56:10.564Z,0.10
2019-02-10T23:58:38.963Z,0.10
